Time;durP1;ratioP1;P1;durP2;ratioP2;P2;SDS_P1;SDS_P2;PMS_P1;PMS_P2;Temp;Humidity;BMP_temperature;BMP_pressure;BME280_temperature;BME280_humidity;BME280_pressure;Samples;Min_cycle;Max_cycle;Signal;HPM_P1;HPM_P2
2021/12/11 00:00:23;;;;;;;26.13;12.77;;;;;;;;;;2088488;28;20115;-67
2021/12/11 00:01:44;;;;;;;23.00;12.60;;;;;;;;;;2083465;28;20675;-67
2021/12/11 00:03:07;;;;;;;21.42;12.90;;;;;;;;;;2080581;28;20025;-68
2021/12/11 00:04:31;;;;;;;18.77;11.60;;;;;;;;;;2079417;28;20495;-67
2021/12/11 00:05:56;;;;;;;21.25;12.00;;;;;;;;;;2080488;28;20025;-67
2021/12/11 00:07:16;;;;;;;20.27;11.80;;;;;;;;;;2081314;28;20029;-68
2021/12/11 00:08:35;;;;;;;20.88;11.63;;;;;;;;;;2080813;28;20034;-68
2021/12/11 00:10:04;;;;;;;18.02;11.68;;;;;;;;;;2080386;28;20033;-68
2021/12/11 00:11:28;;;;;;;20.52;12.02;;;;;;;;;;2081120;28;20380;-69
2021/12/11 00:12:50;;;;;;;18.60;11.20;;;;;;;;;;2078059;28;20025;-67
2021/12/11 00:14:11;;;;;;;17.45;11.50;;;;;;;;;;2081035;28;20026;-68
2021/12/11 00:15:42;;;;;;;17.30;10.85;;;;;;;;;;2080768;28;20033;-67
2021/12/11 00:17:02;;;;;;;16.23;11.15;;;;;;;;;;2080748;28;20029;-69
2021/12/11 00:18:25;;;;;;;17.90;11.43;;;;;;;;;;2081934;28;20021;-69
2021/12/11 00:19:45;;;;;;;17.58;11.10;;;;;;;;;;2081767;28;20033;-69
2021/12/11 00:21:06;;;;;;;18.35;10.75;;;;;;;;;;2081321;28;20435;-69
2021/12/11 00:22:26;;;;;;;20.40;11.15;;;;;;;;;;2082155;28;20488;-68
2021/12/11 00:23:52;;;;;;;21.00;11.00;;;;;;;;;;2081547;28;20037;-69
2021/12/11 00:25:11;;;;;;;19.58;11.50;;;;;;;;;;2081762;28;20053;-69
2021/12/11 00:26:41;;;;;;;17.95;11.10;;;;;;;;;;2078144;28;20434;-69
2021/12/11 00:28:03;;;;;;;18.67;10.75;;;;;;;;;;2080140;28;20026;-69
2021/12/11 00:29:24;;;;;;;16.77;10.40;;;;;;;;;;2080739;28;20026;-69
2021/12/11 00:30:44;;;;;;;16.00;10.10;;;;;;;;;;2080321;28;20025;-69
2021/12/11 00:32:05;;;;;;;19.30;11.05;;;;;;;;;;2079953;28;20041;-70
2021/12/11 00:33:30;;;;;;;19.80;11.18;;;;;;;;;;2080046;28;20037;-69
2021/12/11 00:34:51;;;;;;;16.67;10.30;;;;;;;;;;2079928;28;20167;-71
2021/12/11 00:36:11;;;;;;;17.05;10.85;;;;;;;;;;2079585;28;20041;-70
2021/12/11 00:37:30;;;;;;;16.58;10.95;;;;;;;;;;2080971;28;20033;-70
2021/12/11 00:38:50;;;;;;;18.73;11.10;;;;;;;;;;2079040;28;20729;-69
2021/12/11 00:40:39;;;;;;;18.30;10.98;;;;;;;;;;2079877;28;20037;-70
2021/12/11 00:42:00;;;;;;;19.63;11.48;;;;;;;;;;2073358;28;20458;-69
2021/12/11 00:43:25;;;;;;;17.75;10.65;;;;;;;;;;2080413;28;20033;-69
2021/12/11 00:44:48;;;;;;;17.83;10.70;;;;;;;;;;2083382;28;20037;-70
2021/12/11 00:46:10;;;;;;;20.08;11.27;;;;;;;;;;2080858;28;20029;-69
2021/12/11 00:47:30;;;;;;;19.52;11.02;;;;;;;;;;2079651;28;20045;-69
2021/12/11 00:48:49;;;;;;;17.13;10.77;;;;;;;;;;2075981;28;20025;-69
2021/12/11 00:50:12;;;;;;;19.90;11.07;;;;;;;;;;2081015;28;20117;-69
2021/12/11 00:51:31;;;;;;;;;;;;;;;;;;2081188;28;20025;-69
2021/12/11 00:52:56;;;;;;;14.35;10.45;;;;;;;;;;2079889;28;19909;-69
2021/12/11 00:54:15;;;;;;;15.27;9.93;;;;;;;;;;2079237;28;20620;-69
2021/12/11 00:55:36;;;;;;;18.02;10.85;;;;;;;;;;2080164;28;20029;-69
2021/12/11 00:56:55;;;;;;;19.13;11.23;;;;;;;;;;2079412;28;20045;-68
2021/12/11 00:58:25;;;;;;;17.08;10.32;;;;;;;;;;2079826;28;20045;-69
2021/12/11 00:59:44;;;;;;;16.42;10.63;;;;;;;;;;2080362;28;20046;-69
2021/12/11 01:01:06;;;;;;;17.60;10.38;;;;;;;;;;2080901;28;20029;-69
2021/12/11 01:02:25;;;;;;;17.80;9.80;;;;;;;;;;2081102;28;20033;-70
2021/12/11 01:03:52;;;;;;;17.60;9.80;;;;;;;;;;2080532;28;20033;-69
2021/12/11 01:05:11;;;;;;;15.45;10.32;;;;;;;;;;2080134;28;20932;-69
2021/12/11 01:06:36;;;;;;;17.52;10.32;;;;;;;;;;2081630;28;20037;-69
2021/12/11 01:07:55;;;;;;;17.65;10.57;;;;;;;;;;2080474;28;20044;-69
2021/12/11 01:09:23;;;;;;;14.30;9.65;;;;;;;;;;2080086;28;20487;-69
2021/12/11 01:10:42;;;;;;;20.48;10.02;;;;;;;;;;2080590;28;21158;-69
2021/12/11 01:12:07;;;;;;;15.93;9.00;;;;;;;;;;2081172;28;20483;-69
2021/12/11 01:13:31;;;;;;;17.10;9.75;;;;;;;;;;2078238;28;20041;-69
2021/12/11 01:14:56;;;;;;;17.02;10.07;;;;;;;;;;2078437;28;20025;-69
2021/12/11 01:16:16;;;;;;;14.40;9.68;;;;;;;;;;2079874;28;20045;-69
2021/12/11 01:17:58;;;;;;;14.27;9.38;;;;;;;;;;2080756;28;20460;-69
2021/12/11 01:19:19;;;;;;;11.82;7.88;;;;;;;;;;2080741;28;20041;-69
2021/12/11 01:23:27;;;;;;;14.43;8.10;;;;;;;;;;2032554;29;20032;-68
2021/12/11 01:24:47;;;;;;;11.55;7.75;;;;;;;;;;2054210;28;20039;-68
2021/12/11 01:26:09;;;;;;;12.75;7.90;;;;;;;;;;2053736;28;20055;-69
2021/12/11 01:27:28;;;;;;;13.68;8.27;;;;;;;;;;2054094;28;20524;-68
2021/12/11 01:28:50;;;;;;;13.15;7.88;;;;;;;;;;2079843;28;20435;-68
2021/12/11 01:30:11;;;;;;;9.90;7.65;;;;;;;;;;2081070;28;20531;-69
2021/12/11 01:31:30;;;;;;;10.60;7.05;;;;;;;;;;2081163;28;20034;-69
2021/12/11 01:32:49;;;;;;;13.27;7.47;;;;;;;;;;2081035;28;20037;-69
2021/12/11 01:34:10;;;;;;;10.25;7.45;;;;;;;;;;2080776;28;20033;-68
2021/12/11 01:35:29;;;;;;;9.57;6.88;;;;;;;;;;2080564;28;20052;-69
2021/12/11 01:36:48;;;;;;;11.10;7.15;;;;;;;;;;2080077;28;20386;-68
2021/12/11 01:38:10;;;;;;;8.73;6.72;;;;;;;;;;2080079;28;20395;-68
2021/12/11 01:39:31;;;;;;;10.98;6.30;;;;;;;;;;2078354;28;20423;-69
2021/12/11 01:40:52;;;;;;;12.25;6.78;;;;;;;;;;2078116;28;20029;-69
2021/12/11 01:42:14;;;;;;;10.68;6.78;;;;;;;;;;2078960;28;20440;-69
2021/12/11 01:43:34;;;;;;;6.47;5.25;;;;;;;;;;2079718;28;20031;-69
2021/12/11 01:44:54;;;;;;;6.32;5.72;;;;;;;;;;2078214;28;20021;-68
2021/12/11 01:46:13;;;;;;;7.57;5.28;;;;;;;;;;2080824;28;20108;-69
2021/12/11 01:47:33;;;;;;;9.65;5.63;;;;;;;;;;2078966;28;20034;-69
2021/12/11 01:48:58;;;;;;;6.50;5.18;;;;;;;;;;2079515;28;20129;-69
2021/12/11 01:50:29;;;;;;;6.18;5.10;;;;;;;;;;2080114;28;20495;-69
2021/12/11 01:51:53;;;;;;;7.85;5.03;;;;;;;;;;2080504;28;20042;-69
2021/12/11 01:53:19;;;;;;;8.15;5.35;;;;;;;;;;2079859;28;20104;-69
2021/12/11 01:54:40;;;;;;;6.28;5.55;;;;;;;;;;2080503;28;20029;-69
2021/12/11 01:56:08;;;;;;;5.95;5.05;;;;;;;;;;2080385;28;20049;-69
2021/12/11 01:57:28;;;;;;;7.20;5.05;;;;;;;;;;2079168;28;20037;-69
2021/12/11 01:58:47;;;;;;;6.30;5.18;;;;;;;;;;2075362;28;20018;-69
2021/12/11 02:00:13;;;;;;;9.13;5.25;;;;;;;;;;2083985;28;20156;-69
2021/12/11 02:01:47;;;;;;;5.50;4.78;;;;;;;;;;2078571;28;20030;-69
2021/12/11 02:03:09;;;;;;;5.50;4.60;;;;;;;;;;2077390;28;20037;-69
2021/12/11 02:04:29;;;;;;;6.78;4.47;;;;;;;;;;2079775;28;20048;-69
2021/12/11 02:05:49;;;;;;;5.95;4.75;;;;;;;;;;2080506;28;20041;-69
2021/12/11 02:07:10;;;;;;;6.85;4.85;;;;;;;;;;2080727;28;20076;-69
2021/12/11 02:08:31;;;;;;;5.13;4.63;;;;;;;;;;2079321;28;20514;-69
2021/12/11 02:09:56;;;;;;;4.85;4.35;;;;;;;;;;2080559;28;20025;-69
2021/12/11 02:11:21;;;;;;;4.30;3.90;;;;;;;;;;2080420;28;20037;-68
2021/12/11 02:12:43;;;;;;;5.95;3.92;;;;;;;;;;2079100;28;20029;-68
2021/12/11 02:14:05;;;;;;;4.97;4.50;;;;;;;;;;2081428;28;20381;-68
2021/12/11 02:15:32;;;;;;;4.28;3.88;;;;;;;;;;2080906;28;20242;-69
2021/12/11 02:16:52;;;;;;;4.38;3.97;;;;;;;;;;2080861;28;20022;-68
2021/12/11 02:18:22;;;;;;;5.68;4.80;;;;;;;;;;2080111;28;20060;-69
2021/12/11 02:19:43;;;;;;;4.70;4.07;;;;;;;;;;2080238;28;20057;-68
2021/12/11 02:21:08;;;;;;;5.15;4.18;;;;;;;;;;2080082;28;20045;-69
2021/12/11 02:22:30;;;;;;;5.15;4.65;;;;;;;;;;2078311;28;20034;-68
2021/12/11 02:24:09;;;;;;;4.63;4.22;;;;;;;;;;2079153;28;20042;-69
2021/12/11 02:25:30;;;;;;;4.25;3.92;;;;;;;;;;2081065;28;20037;-70
2021/12/11 02:26:53;;;;;;;4.25;3.85;;;;;;;;;;2080120;28;20461;-67
2021/12/11 02:28:12;;;;;;;4.63;4.13;;;;;;;;;;2078811;28;20030;-67
2021/12/11 02:29:36;;;;;;;4.22;3.83;;;;;;;;;;2086970;28;20495;-67
2021/12/11 02:31:01;;;;;;;4.00;3.60;;;;;;;;;;2080226;28;20034;-68
2021/12/11 02:32:27;;;;;;;12.80;4.18;;;;;;;;;;2081043;28;20061;-67
2021/12/11 02:33:52;;;;;;;4.93;3.55;;;;;;;;;;2081279;28;20029;-67
2021/12/11 02:35:17;;;;;;;3.83;3.42;;;;;;;;;;2078737;28;20022;-67
2021/12/11 02:36:40;;;;;;;6.60;4.40;;;;;;;;;;2080428;28;20033;-67
2021/12/11 02:38:07;;;;;;;5.60;3.75;;;;;;;;;;2080239;28;20029;-67
2021/12/11 02:39:38;;;;;;;5.45;3.60;;;;;;;;;;2080942;28;20025;-67
2021/12/11 02:41:00;;;;;;;5.70;3.72;;;;;;;;;;2080286;28;20026;-67
2021/12/11 02:42:28;;;;;;;4.32;3.85;;;;;;;;;;2082437;28;20080;-67
2021/12/11 02:43:50;;;;;;;3.83;3.50;;;;;;;;;;2081353;28;20083;-69
2021/12/11 02:45:13;;;;;;;3.95;3.60;;;;;;;;;;2082407;28;20404;-67
2021/12/11 02:46:36;;;;;;;4.00;3.60;;;;;;;;;;2080943;28;20025;-68
2021/12/11 02:47:58;;;;;;;4.28;3.75;;;;;;;;;;2082310;28;20038;-67
2021/12/11 02:49:19;;;;;;;5.47;3.47;;;;;;;;;;2081657;28;20026;-67
2021/12/11 02:50:44;;;;;;;4.25;3.85;;;;;;;;;;2080927;28;20116;-67
2021/12/11 02:52:07;;;;;;;4.70;3.63;;;;;;;;;;2081461;28;20080;-66
2021/12/11 02:53:31;;;;;;;5.10;3.65;;;;;;;;;;2089318;28;20518;-67
2021/12/11 02:55:08;;;;;;;4.45;4.05;;;;;;;;;;2083516;28;20034;-67
2021/12/11 02:56:33;;;;;;;3.58;3.25;;;;;;;;;;2081568;28;20483;-68
2021/12/11 02:57:54;;;;;;;4.63;3.80;;;;;;;;;;2081822;28;20041;-67
2021/12/11 02:59:16;;;;;;;3.80;3.42;;;;;;;;;;2080205;28;20041;-67
2021/12/11 03:00:45;;;;;;;4.85;4.35;;;;;;;;;;2081353;28;20278;-68
2021/12/11 03:02:09;;;;;;;4.65;3.50;;;;;;;;;;2079489;28;20584;-70
2021/12/11 03:03:32;;;;;;;4.57;3.67;;;;;;;;;;2079174;28;20041;-67
2021/12/11 03:05:04;;;;;;;4.82;3.70;;;;;;;;;;2080739;28;20026;-67
2021/12/11 03:06:27;;;;;;;3.92;3.42;;;;;;;;;;2081102;28;20395;-67
2021/12/11 03:07:51;;;;;;;4.60;3.55;;;;;;;;;;2080769;28;20068;-68
2021/12/11 03:09:11;;;;;;;5.18;3.85;;;;;;;;;;2079696;28;20382;-68
2021/12/11 03:10:30;;;;;;;6.60;4.10;;;;;;;;;;2080827;28;20037;-67
2021/12/11 03:11:50;;;;;;;4.32;3.92;;;;;;;;;;2081596;28;20033;-68
2021/12/11 03:13:10;;;;;;;4.45;3.53;;;;;;;;;;2081067;28;20033;-67
2021/12/11 03:14:29;;;;;;;5.47;4.20;;;;;;;;;;2078445;28;20109;-67
2021/12/11 03:15:49;;;;;;;4.30;3.90;;;;;;;;;;2080286;28;20025;-67
2021/12/11 03:17:08;;;;;;;5.97;3.60;;;;;;;;;;2079781;28;20026;-67
2021/12/11 03:18:28;;;;;;;3.92;3.53;;;;;;;;;;2087276;28;20356;-66
2021/12/11 03:19:47;;;;;;;3.88;3.40;;;;;;;;;;2083647;28;20029;-68
2021/12/11 03:21:06;;;;;;;5.25;4.03;;;;;;;;;;2081257;28;20018;-67
2021/12/11 03:22:29;;;;;;;4.18;3.88;;;;;;;;;;2080778;28;20033;-67
2021/12/11 03:23:49;;;;;;;4.30;3.65;;;;;;;;;;2088932;28;20033;-67
2021/12/11 03:25:10;;;;;;;3.78;3.20;;;;;;;;;;2084474;28;20492;-68
2021/12/11 03:26:29;;;;;;;4.68;3.45;;;;;;;;;;2082381;28;20033;-68
2021/12/11 03:27:48;;;;;;;3.60;3.30;;;;;;;;;;2079910;28;20029;-67
2021/12/11 03:29:08;;;;;;;7.43;4.10;;;;;;;;;;2080440;28;20029;-68
2021/12/11 03:30:28;;;;;;;3.60;3.30;;;;;;;;;;2080705;28;20040;-68
2021/12/11 03:31:47;;;;;;;3.55;3.25;;;;;;;;;;2081518;28;20029;-67
2021/12/11 03:33:11;;;;;;;4.43;3.58;;;;;;;;;;2081741;28;20486;-68
2021/12/11 03:34:30;;;;;;;4.65;3.47;;;;;;;;;;2081122;28;20432;-67
2021/12/11 03:35:49;;;;;;;3.83;3.22;;;;;;;;;;2081166;28;20026;-67
2021/12/11 03:37:09;;;;;;;4.07;3.47;;;;;;;;;;2081452;28;20097;-67
2021/12/11 03:38:29;;;;;;;4.75;3.63;;;;;;;;;;2082165;28;20104;-69
2021/12/11 03:39:50;;;;;;;4.53;3.50;;;;;;;;;;2080896;28;20060;-67
2021/12/11 03:41:09;;;;;;;3.90;3.10;;;;;;;;;;2078620;28;20447;-67
2021/12/11 03:42:34;;;;;;;3.20;2.80;;;;;;;;;;2077816;28;20045;-67
2021/12/11 03:43:54;;;;;;;3.65;2.90;;;;;;;;;;2081610;28;20033;-68
2021/12/11 03:45:18;;;;;;;4.35;2.90;;;;;;;;;;2081227;28;20022;-67
2021/12/11 03:46:37;;;;;;;4.82;3.08;;;;;;;;;;2081219;28;20483;-66
2021/12/11 03:47:58;;;;;;;4.95;3.42;;;;;;;;;;2081889;28;20025;-67
2021/12/11 03:49:18;;;;;;;4.05;3.45;;;;;;;;;;2081845;28;20467;-67
2021/12/11 03:50:38;;;;;;;4.85;3.25;;;;;;;;;;2081788;28;20034;-67
2021/12/11 03:51:57;;;;;;;5.38;3.25;;;;;;;;;;2080433;28;20025;-67
2021/12/11 03:53:16;;;;;;;3.65;2.90;;;;;;;;;;2082024;28;20025;-67
2021/12/11 03:54:37;;;;;;;3.33;3.03;;;;;;;;;;2079859;28;20104;-68
2021/12/11 03:55:59;;;;;;;5.03;3.58;;;;;;;;;;2082004;28;20753;-67
2021/12/11 03:57:19;;;;;;;5.53;3.28;;;;;;;;;;2081425;28;20026;-66
2021/12/11 03:58:38;;;;;;;3.17;2.92;;;;;;;;;;2080269;28;20042;-67
2021/12/11 03:59:57;;;;;;;3.13;2.85;;;;;;;;;;2081904;28;20029;-67
2021/12/11 04:01:30;;;;;;;3.15;2.80;;;;;;;;;;2081188;28;20025;-69
2021/12/11 04:02:49;;;;;;;4.30;3.03;;;;;;;;;;2079372;28;20060;-67
2021/12/11 04:04:12;;;;;;;5.97;3.42;;;;;;;;;;2080345;28;20255;-67
2021/12/11 04:05:32;;;;;;;4.13;2.67;;;;;;;;;;2081454;28;20120;-67
2021/12/11 04:06:51;;;;;;;5.97;3.40;;;;;;;;;;2081089;28;20034;-67
2021/12/11 04:08:12;;;;;;;4.30;3.28;;;;;;;;;;2080941;28;20052;-67
2021/12/11 04:09:30;;;;;;;3.58;3.28;;;;;;;;;;2080006;28;20041;-68
2021/12/11 04:10:50;;;;;;;2.78;2.58;;;;;;;;;;2079219;28;20033;-66
2021/12/11 04:12:09;;;;;;;3.08;2.78;;;;;;;;;;2081084;28;20538;-67
2021/12/11 04:13:28;;;;;;;3.47;2.67;;;;;;;;;;2081481;28;20480;-68
2021/12/11 04:14:48;;;;;;;3.22;2.92;;;;;;;;;;2079894;28;20042;-66
2021/12/11 04:16:09;;;;;;;3.30;2.95;;;;;;;;;;2080105;28;20049;-68
2021/12/11 04:17:28;;;;;;;4.00;3.60;;;;;;;;;;2080771;28;20034;-66
2021/12/11 04:18:48;;;;;;;4.05;3.65;;;;;;;;;;2080747;28;20038;-67
2021/12/11 04:20:09;;;;;;;3.15;2.72;;;;;;;;;;2079976;28;20037;-68
2021/12/11 04:21:28;;;;;;;3.50;3.17;;;;;;;;;;2081023;28;20033;-69
2021/12/11 04:22:47;;;;;;;3.67;2.95;;;;;;;;;;2079929;28;20022;-67
2021/12/11 04:24:08;;;;;;;3.45;3.15;;;;;;;;;;2080413;28;20488;-70
2021/12/11 04:25:27;;;;;;;3.50;3.20;;;;;;;;;;2081202;28;20171;-69
2021/12/11 04:26:49;;;;;;;3.88;3.40;;;;;;;;;;2079873;28;20030;-70
2021/12/11 04:28:09;;;;;;;3.25;2.95;;;;;;;;;;2079198;28;20049;-70
2021/12/11 04:29:29;;;;;;;3.83;3.25;;;;;;;;;;2080472;28;20030;-68
2021/12/11 04:30:49;;;;;;;6.30;3.33;;;;;;;;;;2080298;28;20037;-69
2021/12/11 04:32:09;;;;;;;5.15;3.13;;;;;;;;;;2079634;28;20022;-67
2021/12/11 04:33:28;;;;;;;4.22;3.30;;;;;;;;;;2081045;28;20116;-67
2021/12/11 04:34:47;;;;;;;8.02;3.58;;;;;;;;;;2080495;28;20022;-68
2021/12/11 04:36:09;;;;;;;4.28;3.13;;;;;;;;;;2080219;28;20440;-68
2021/12/11 04:37:30;;;;;;;3.85;3.25;;;;;;;;;;2081327;28;20129;-68
2021/12/11 04:38:49;;;;;;;3.40;3.10;;;;;;;;;;2080483;28;20033;-67
2021/12/11 04:40:11;;;;;;;3.75;2.72;;;;;;;;;;2080302;28;20030;-67
2021/12/11 04:41:36;;;;;;;6.03;3.50;;;;;;;;;;2080684;28;20392;-67
2021/12/11 04:43:05;;;;;;;3.65;3.30;;;;;;;;;;2081855;28;20034;-67
2021/12/11 04:44:32;;;;;;;3.85;2.88;;;;;;;;;;2079430;28;20029;-68
2021/12/11 04:45:59;;;;;;;3.25;2.95;;;;;;;;;;2080869;28;20041;-68
2021/12/11 04:47:45;;;;;;;3.97;2.90;;;;;;;;;;2080762;28;20018;-68
2021/12/11 04:49:17;;;;;;;4.38;3.10;;;;;;;;;;2080059;28;20030;-68
2021/12/11 04:51:06;;;;;;;4.53;2.90;;;;;;;;;;2079854;28;20508;-68
2021/12/11 04:52:34;;;;;;;2.95;2.75;;;;;;;;;;2080093;28;20022;-68
2021/12/11 04:55:35;;;;;;;3.20;2.90;;;;;;;;;;2081093;28;20415;-67
2021/12/11 05:06:38;;;;;;;3.75;3.15;;;;;;;;;;2081454;28;20495;-68
2021/12/11 05:09:35;;;;;;;3.03;2.72;;;;;;;;;;2080982;28;20025;-68
2021/12/11 05:10:59;;;;;;;2.58;2.38;;;;;;;;;;2081173;28;20041;-68
2021/12/11 05:12:30;;;;;;;3.30;2.42;;;;;;;;;;2081076;28;20029;-67
2021/12/11 05:13:48;;;;;;;5.43;2.70;;;;;;;;;;2079709;28;20049;-68
2021/12/11 05:15:18;;;;;;;4.28;2.90;;;;;;;;;;2079223;28;20448;-68
2021/12/11 05:16:39;;;;;;;2.83;2.50;;;;;;;;;;2080413;28;20030;-68
2021/12/11 05:17:59;;;;;;;2.70;2.50;;;;;;;;;;2080672;28;20029;-68
2021/12/11 05:19:18;;;;;;;3.05;2.80;;;;;;;;;;2078895;28;20037;-68
2021/12/11 05:20:40;;;;;;;3.30;2.75;;;;;;;;;;2077891;28;20033;-68
2021/12/11 05:22:00;;;;;;;9.50;5.85;;;;;;;;;;2080737;28;20065;-68
2021/12/11 05:23:19;;;;;;;5.82;4.43;;;;;;;;;;2081065;28;20025;-68
2021/12/11 05:24:40;;;;;;;3.08;2.88;;;;;;;;;;2078382;28;20030;-67
2021/12/11 05:25:59;;;;;;;4.72;2.75;;;;;;;;;;2078845;28;20073;-68
2021/12/11 05:27:18;;;;;;;6.55;4.68;;;;;;;;;;2079901;28;20395;-68
2021/12/11 05:28:37;;;;;;;14.93;9.20;;;;;;;;;;2079704;28;20052;-67
2021/12/11 05:29:56;;;;;;;5.50;4.60;;;;;;;;;;2079942;28;20021;-68
2021/12/11 05:31:15;;;;;;;17.15;8.43;;;;;;;;;;2078579;28;20025;-68
2021/12/11 05:32:34;;;;;;;15.77;9.00;;;;;;;;;;2078905;28;20033;-68
2021/12/11 05:33:53;;;;;;;2.72;2.30;;;;;;;;;;2080704;28;20021;-68
2021/12/11 05:35:12;;;;;;;3.00;2.70;;;;;;;;;;2081216;28;20022;-68
2021/12/11 05:36:32;;;;;;;2.35;2.15;;;;;;;;;;2078218;28;20073;-68
2021/12/11 05:37:51;;;;;;;2.63;2.42;;;;;;;;;;2080432;28;20033;-68
2021/12/11 05:39:14;;;;;;;3.08;2.50;;;;;;;;;;2079383;28;20034;-68
2021/12/11 05:40:35;;;;;;;2.42;2.22;;;;;;;;;;2079776;28;20531;-68
2021/12/11 05:41:54;;;;;;;3.10;2.25;;;;;;;;;;2078139;28;20132;-68
2021/12/11 05:43:13;;;;;;;2.33;2.13;;;;;;;;;;2077874;28;20041;-68
2021/12/11 05:44:33;;;;;;;3.22;2.13;;;;;;;;;;2081011;28;20061;-70
2021/12/11 05:45:52;;;;;;;2.70;2.25;;;;;;;;;;2079857;28;20021;-68
2021/12/11 05:47:11;;;;;;;4.05;2.10;;;;;;;;;;2076026;28;20492;-69
2021/12/11 05:48:30;;;;;;;3.20;2.15;;;;;;;;;;2079974;28;20088;-68
2021/12/11 05:49:49;;;;;;;2.28;2.13;;;;;;;;;;2079933;28;20022;-68
2021/12/11 05:51:09;;;;;;;3.45;2.38;;;;;;;;;;2080643;28;20025;-68
2021/12/11 05:52:29;;;;;;;3.90;2.20;;;;;;;;;;2080443;28;20018;-68
2021/12/11 05:53:49;;;;;;;3.13;1.90;;;;;;;;;;2080660;28;20029;-68
2021/12/11 05:55:10;;;;;;;2.28;2.08;;;;;;;;;;2079866;28;20116;-68
2021/12/11 05:56:34;;;;;;;2.40;1.80;;;;;;;;;;2080791;28;20116;-68
2021/12/11 05:57:57;;;;;;;2.30;2.10;;;;;;;;;;2081304;28;20038;-70
2021/12/11 05:59:17;;;;;;;5.00;1.92;;;;;;;;;;2079213;28;20391;-68
2021/12/11 06:00:38;;;;;;;2.35;1.38;;;;;;;;;;2081253;28;20034;-68
2021/12/11 06:02:03;;;;;;;1.85;1.70;;;;;;;;;;2080684;28;20029;-68
2021/12/11 06:03:22;;;;;;;1.73;1.63;;;;;;;;;;2080349;28;20426;-68
2021/12/11 06:04:41;;;;;;;3.88;1.65;;;;;;;;;;2081008;28;20030;-67
2021/12/11 06:06:00;;;;;;;1.88;1.70;;;;;;;;;;2080978;28;20026;-69
2021/12/11 06:07:20;;;;;;;3.28;2.00;;;;;;;;;;2080859;28;20033;-70
2021/12/11 06:08:40;;;;;;;2.67;1.70;;;;;;;;;;2077722;28;20026;-69
2021/12/11 06:10:05;;;;;;;1.92;1.65;;;;;;;;;;2079986;28;20025;-70
2021/12/11 06:11:24;;;;;;;1.95;1.80;;;;;;;;;;2079959;28;20447;-69
2021/12/11 06:12:43;;;;;;;5.47;2.03;;;;;;;;;;2080201;28;20388;-69
2021/12/11 06:14:03;;;;;;;2.00;1.70;;;;;;;;;;2080694;28;20066;-69
2021/12/11 06:15:23;;;;;;;4.68;1.80;;;;;;;;;;2086938;28;20037;-69
2021/12/11 06:16:43;;;;;;;2.25;1.92;;;;;;;;;;2085100;28;20033;-69
2021/12/11 06:18:02;;;;;;;1.80;1.55;;;;;;;;;;2081131;28;20041;-71
2021/12/11 06:19:22;;;;;;;3.10;1.83;;;;;;;;;;2081977;28;20030;-69
2021/12/11 06:20:41;;;;;;;3.70;1.70;;;;;;;;;;2086521;28;20022;-70
2021/12/11 06:22:00;;;;;;;3.63;2.15;;;;;;;;;;2084643;28;20057;-69
2021/12/11 06:23:21;;;;;;;4.00;2.08;;;;;;;;;;2082884;28;20538;-70
2021/12/11 06:24:40;;;;;;;2.75;1.60;;;;;;;;;;2079824;28;20025;-69
2021/12/11 06:25:59;;;;;;;2.90;1.90;;;;;;;;;;2083536;28;20025;-70
2021/12/11 06:27:18;;;;;;;2.15;1.85;;;;;;;;;;2076883;28;20064;-69
2021/12/11 06:28:38;;;;;;;2.97;2.28;;;;;;;;;;2079867;28;20026;-69
2021/12/11 06:29:57;;;;;;;4.60;2.17;;;;;;;;;;2081587;28;20025;-69
2021/12/11 06:31:19;;;;;;;1.88;1.77;;;;;;;;;;2080823;28;20448;-69
2021/12/11 06:32:39;;;;;;;2.38;2.00;;;;;;;;;;2081689;28;20034;-69
2021/12/11 06:33:58;;;;;;;2.53;2.15;;;;;;;;;;2080705;28;20387;-69
2021/12/11 06:35:23;;;;;;;2.28;2.08;;;;;;;;;;2082074;28;20033;-70
2021/12/11 06:36:43;;;;;;;4.82;1.90;;;;;;;;;;2080697;28;20033;-69
2021/12/11 06:38:02;;;;;;;2.75;1.60;;;;;;;;;;2081137;28;20487;-70
2021/12/11 06:39:22;;;;;;;3.20;2.20;;;;;;;;;;2080433;28;20034;-69
2021/12/11 06:40:42;;;;;;;3.60;2.05;;;;;;;;;;2078749;28;20037;-69
2021/12/11 06:42:02;;;;;;;2.80;2.00;;;;;;;;;;2087785;28;20045;-69
2021/12/11 06:43:22;;;;;;;2.25;2.05;;;;;;;;;;2079876;28;20120;-70
2021/12/11 06:44:40;;;;;;;1.83;1.73;;;;;;;;;;2081269;28;20029;-69
2021/12/11 06:45:59;;;;;;;4.40;1.88;;;;;;;;;;2081409;28;20026;-69
2021/12/11 06:47:18;;;;;;;2.67;2.00;;;;;;;;;;2081187;28;20029;-69
2021/12/11 06:48:37;;;;;;;3.42;1.90;;;;;;;;;;2081068;28;20030;-69
2021/12/11 06:49:56;;;;;;;3.72;1.90;;;;;;;;;;2081400;28;20033;-70
2021/12/11 06:51:15;;;;;;;2.58;1.80;;;;;;;;;;2082006;28;20025;-69
2021/12/11 06:52:35;;;;;;;3.05;2.20;;;;;;;;;;2079915;28;20065;-69
2021/12/11 06:53:58;;;;;;;3.60;2.10;;;;;;;;;;2080726;28;20042;-69
2021/12/11 06:55:18;;;;;;;2.47;2.17;;;;;;;;;;2081478;28;20105;-69
2021/12/11 06:56:38;;;;;;;2.75;2.55;;;;;;;;;;2081696;28;20038;-70
2021/12/11 06:57:57;;;;;;;3.55;2.10;;;;;;;;;;2081534;28;20045;-69
2021/12/11 06:59:17;;;;;;;2.97;2.05;;;;;;;;;;2081846;28;20045;-70
2021/12/11 07:00:36;;;;;;;4.20;2.90;;;;;;;;;;2081895;28;20029;-69
2021/12/11 07:01:55;;;;;;;2.20;2.00;;;;;;;;;;2081701;28;20034;-71
2021/12/11 07:03:14;;;;;;;2.25;2.03;;;;;;;;;;2082282;28;20124;-69
2021/12/11 07:04:33;;;;;;;4.95;2.33;;;;;;;;;;2082117;28;20018;-69
2021/12/11 07:05:52;;;;;;;5.75;2.03;;;;;;;;;;2081758;28;20499;-68
2021/12/11 07:07:18;;;;;;;4.15;2.28;;;;;;;;;;2081888;28;20018;-68
2021/12/11 07:08:39;;;;;;;6.20;2.28;;;;;;;;;;2087451;28;20021;-69
2021/12/11 07:09:58;;;;;;;6.40;2.10;;;;;;;;;;2081591;28;20034;-68
2021/12/11 07:11:17;;;;;;;7.03;2.50;;;;;;;;;;2081340;28;20038;-68
2021/12/11 07:12:36;;;;;;;5.32;2.40;;;;;;;;;;2081506;28;20507;-68
2021/12/11 07:13:55;;;;;;;3.22;2.15;;;;;;;;;;2081642;28;20025;-69
2021/12/11 07:15:14;;;;;;;4.40;2.20;;;;;;;;;;2081168;28;20556;-68
2021/12/11 07:16:33;;;;;;;3.10;1.92;;;;;;;;;;2082480;28;20045;-69
2021/12/11 07:17:52;;;;;;;1.98;1.88;;;;;;;;;;2080377;28;20037;-68
2021/12/11 07:19:11;;;;;;;3.63;2.08;;;;;;;;;;2077105;28;20029;-69
2021/12/11 07:20:30;;;;;;;2.58;2.00;;;;;;;;;;2079772;28;20025;-68
2021/12/11 07:21:50;;;;;;;5.75;2.65;;;;;;;;;;2080882;28;20034;-68
2021/12/11 07:23:09;;;;;;;3.63;2.60;;;;;;;;;;2086693;28;20115;-69
2021/12/11 07:24:32;;;;;;;3.55;2.33;;;;;;;;;;2087023;28;20036;-69
2021/12/11 07:25:51;;;;;;;;;;;;;;;;;;2084540;28;20061;-68
2021/12/11 07:27:11;;;;;;;3.33;2.33;;;;;;;;;;2081172;28;19909;-68
2021/12/11 07:28:29;;;;;;;3.60;2.30;;;;;;;;;;2080444;28;20022;-69
2021/12/11 07:29:49;;;;;;;2.50;2.30;;;;;;;;;;2081328;28;20030;-69
2021/12/11 07:31:08;;;;;;;3.70;2.65;;;;;;;;;;2080428;28;20407;-67
2021/12/11 07:32:27;;;;;;;2.65;2.45;;;;;;;;;;2084762;28;20025;-67
2021/12/11 07:33:46;;;;;;;3.63;2.80;;;;;;;;;;2083411;28;20456;-67
2021/12/11 07:35:06;;;;;;;2.65;2.40;;;;;;;;;;2079569;28;20038;-67
2021/12/11 07:36:27;;;;;;;3.55;2.67;;;;;;;;;;2078115;28;20109;-67
2021/12/11 07:37:49;;;;;;;3.63;2.50;;;;;;;;;;2079177;28;20022;-67
2021/12/11 07:39:12;;;;;;;4.28;2.50;;;;;;;;;;2080173;28;20495;-67
2021/12/11 07:40:37;;;;;;;6.97;2.50;;;;;;;;;;2080328;28;20030;-69
2021/12/11 07:41:57;;;;;;;3.00;2.30;;;;;;;;;;2079999;28;20081;-68
2021/12/11 07:43:16;;;;;;;3.85;2.42;;;;;;;;;;2079487;28;20038;-68
2021/12/11 07:44:35;;;;;;;3.20;2.75;;;;;;;;;;2080945;28;20030;-68
2021/12/11 07:45:58;;;;;;;5.07;2.88;;;;;;;;;;2080501;28;20438;-68
2021/12/11 07:47:17;;;;;;;3.83;2.60;;;;;;;;;;2079689;28;20051;-69
2021/12/11 07:48:36;;;;;;;2.92;2.40;;;;;;;;;;2080009;28;21318;-67
2021/12/11 07:49:55;;;;;;;2.28;2.08;;;;;;;;;;2079758;28;20029;-67
2021/12/11 07:51:15;;;;;;;7.15;2.63;;;;;;;;;;2081525;28;20398;-68
2021/12/11 07:52:34;;;;;;;18.92;11.80;;;;;;;;;;2080387;28;20026;-68
2021/12/11 07:53:53;;;;;;;7.47;2.95;;;;;;;;;;2078810;28;20033;-67
2021/12/11 07:55:15;;;;;;;3.30;2.38;;;;;;;;;;2080633;28;20503;-67
2021/12/11 07:56:34;;;;;;;4.45;2.95;;;;;;;;;;2080812;28;20688;-68
2021/12/11 07:57:53;;;;;;;6.82;3.15;;;;;;;;;;2081028;28;20040;-68
2021/12/11 07:59:12;;;;;;;8.50;3.40;;;;;;;;;;2079691;28;20415;-68
2021/12/11 08:00:32;;;;;;;8.10;2.90;;;;;;;;;;2080524;28;20518;-68
2021/12/11 08:01:52;;;;;;;4.97;3.15;;;;;;;;;;2080215;28;20029;-68
2021/12/11 08:03:11;;;;;;;4.47;3.03;;;;;;;;;;2079238;28;20042;-68
2021/12/11 08:04:31;;;;;;;3.33;3.00;;;;;;;;;;2077105;28;20042;-67
2021/12/11 08:05:51;;;;;;;4.43;3.00;;;;;;;;;;2079399;28;20034;-68
2021/12/11 08:07:10;;;;;;;4.93;2.70;;;;;;;;;;2080566;28;20021;-68
2021/12/11 08:08:28;;;;;;;5.55;2.50;;;;;;;;;;2080890;28;20021;-67
2021/12/11 08:09:48;;;;;;;3.17;2.50;;;;;;;;;;2082146;28;20061;-68
2021/12/11 08:11:11;;;;;;;4.90;2.47;;;;;;;;;;2080023;28;20030;-68
2021/12/11 08:12:30;;;;;;;6.10;2.60;;;;;;;;;;2081035;28;20030;-68
2021/12/11 08:13:50;;;;;;;3.28;2.55;;;;;;;;;;2081111;28;20492;-68
2021/12/11 08:15:09;;;;;;;3.78;2.50;;;;;;;;;;2078430;28;21036;-68
2021/12/11 08:16:34;;;;;;;2.83;2.30;;;;;;;;;;2079022;28;20505;-68
2021/12/11 08:17:54;;;;;;;4.22;2.20;;;;;;;;;;2079711;28;20467;-68
2021/12/11 08:19:15;;;;;;;2.47;2.10;;;;;;;;;;2076356;28;20061;-68
2021/12/11 08:20:34;;;;;;;3.53;2.30;;;;;;;;;;2081649;28;20492;-69
2021/12/11 08:21:55;;;;;;;2.55;1.95;;;;;;;;;;2086146;28;20025;-68